Battle Lake, MN (56515)

1:51 AM CDT on March 30, 2015 (GMT -0500)
Stalker Lake | | Change Station
CLOSE
Current Station
Personal Weather Station
Location: Battle Lake, MN
Elevation: 1299 ft
Nearby Weather Stations

Elev 1299 ft 46.19 °N, 95.81 °W | Updated 12 minutes ago

Partly Cloudy
Partly Cloudy
32.9 °F
Feels Like 33 °F
N
0.0
Wind Variable Wind from SSE

Today
High -- | Low -- °F
--% Chance of Precip.
Yesterday
High -- | Low -- °F
Precip. -- in
7:06 AM 7:48 PM
Waxing Gibbous, 77% visible
Pressure 29.96 in
Visibility 10.0 miles
Clouds Clear
Windchill 33 °F
Dew Point 28 °F
Humidity 83%
Rainfall 0.00 in
Snow Depth Not available.
UV 0 out of 12
Pollen 1.10 out of 12
Air Quality Not available.
Flu Activity Not available.
METAR KFFM 300634Z AUTO 00000KT 10SM CLR 01/M03 A2996 RMK AO2

More Conditions Fewer Conditions

Pressure 29.96 in
Visibility 10.0 miles
Clouds Clear
Windchill 33 °F
Dew Point 28 °F
Humidity 83%
Rainfall 0.00 in
Snow Depth Not available.
UV 0 out of 12
Pollen 1.10 out of 12
Air Quality Not available.
Flu Activity Not available.
METAR KFFM 300634Z AUTO 00000KT 10SM CLR 01/M03 A2996 RMK AO2

More Conditions Fewer Conditions

10-Day Weather Forecast

Almanac

Astronomy

Mar. 30, 2015 Rise Set
Actual Time
Civil Twilight
Nautical Twilight
Astronomical Twilight
Moon
Length of Visible Light
Length of Day
Tomorrow will be .
, % of the Moon is Illuminated

Today's Extremes

State Highs State Lows

Community

WunderPhotos

Upload Photos

1,809,439 photos uploaded!

WunderBlogs® & News

Nearby

Air Quality

  Air Quality AQ Index Pollutant
Not available.

Snow Depth

Station Depth Elevation

Earthquake Activity

City Distance Mag. Time & Date
Minimum magnitude displayed is 2.5.

Coastal Water Temperatures

Place Temperature

Stations

Nearby Weather Stations

Station Location Temp. Windchill Dew Point Humidity Wind Precip. Elev Updated Type